createdAt,value
2023-02-21T00:02:17.000Z,12.13
2023-02-21T00:05:37.103Z,15.13
2023-02-21T00:08:56.962Z,13.70
2023-02-21T00:12:16.901Z,14.70
2023-02-21T00:15:36.740Z,15.77
2023-02-21T00:18:57.644Z,12.13
2023-02-21T00:22:17.482Z,12.60
2023-02-21T00:25:37.333Z,13.87
2023-02-21T00:28:57.869Z,13.23
2023-02-21T00:32:18.384Z,10.67
2023-02-21T00:35:38.486Z,15.90
2023-02-21T00:38:58.135Z,15.43
2023-02-21T00:42:18.140Z,12.10
2023-02-21T00:45:38.435Z,12.37
2023-02-21T00:48:58.693Z,11.37
2023-02-21T00:52:18.742Z,13.60
2023-02-21T00:55:38.445Z,10.73
2023-02-21T00:58:58.495Z,12.13
2023-02-21T01:02:18.366Z,12.87
2023-02-21T01:05:38.541Z,13.37
2023-02-21T01:09:05.453Z,12.43
2023-02-21T01:12:25.451Z,11.37
2023-02-21T01:15:45.759Z,10.77
2023-02-21T01:19:07.747Z,11.80
2023-02-21T01:22:27.967Z,13.77
2023-02-21T01:25:48.033Z,13.13
2023-02-21T01:29:08.116Z,10.33
2023-02-21T01:32:28.348Z,11.67
2023-02-21T01:35:48.605Z,9.23
2023-02-21T01:39:08.278Z,11.13
2023-02-21T01:42:29.578Z,9.60
2023-02-21T01:46:00.354Z,10.50
2023-02-21T01:49:26.676Z,12.83
2023-02-21T01:52:46.780Z,10.53
2023-02-21T01:56:07.122Z,11.83
2023-02-21T01:59:28.635Z,9.90
2023-02-21T02:03:26.483Z,14.40
2023-02-21T02:06:50.530Z,9.90
2023-02-21T02:10:10.599Z,10.47
2023-02-21T02:13:33.476Z,10.07
2023-02-21T02:16:42.577Z,9.90
2023-02-21T02:19:59.726Z,10.67
2023-02-21T02:23:29.148Z,9.87
2023-02-21T02:26:58.958Z,10.43
2023-02-21T02:30:08.448Z,8.80
2023-02-21T02:33:59.132Z,9.97
2023-02-21T02:37:17.043Z,10.27
2023-02-21T02:40:31.105Z,9.63
2023-02-21T02:43:51.067Z,12.70
2023-02-21T02:46:54.812Z,10.10
2023-02-21T02:49:59.108Z,8.13
2023-02-21T02:53:03.661Z,8.30
2023-02-21T02:56:10.839Z,9.00
2023-02-21T02:59:20.465Z,8.40
2023-02-21T03:02:37.934Z,9.63
2023-02-21T03:05:52.854Z,9.33
2023-02-21T03:09:19.138Z,9.00
2023-02-21T03:12:47.243Z,10.93
2023-02-21T03:16:01.738Z,10.00
2023-02-21T03:19:13.818Z,8.50
2023-02-21T03:22:21.776Z,12.57
2023-02-21T03:25:25.520Z,9.10
2023-02-21T03:28:32.807Z,11.13
2023-02-21T03:31:39.846Z,9.43
2023-02-21T03:34:43.534Z,11.67
2023-02-21T03:37:52.177Z,9.00
2023-02-21T03:40:54.849Z,8.50
2023-02-21T03:43:57.460Z,11.90
2023-02-21T03:46:59.053Z,9.83
2023-02-21T03:50:00.560Z,8.63
2023-02-21T03:53:02.532Z,9.80
2023-02-21T03:56:06.344Z,7.07
2023-02-21T03:59:23.159Z,10.50
2023-02-21T04:02:25.080Z,12.97
2023-02-21T04:05:27.271Z,7.40
2023-02-21T04:08:28.801Z,7.37
2023-02-21T04:11:31.392Z,10.63
2023-02-21T04:14:33.945Z,10.47
2023-02-21T04:17:35.356Z,8.80
2023-02-21T04:20:38.244Z,7.77
2023-02-21T04:23:42.803Z,11.70
2023-02-21T04:26:44.440Z,8.57
2023-02-21T04:29:45.847Z,11.03
2023-02-21T04:32:47.327Z,10.47
2023-02-21T04:35:50.495Z,8.17
2023-02-21T04:39:01.172Z,9.80
2023-02-21T04:42:02.642Z,7.83
2023-02-21T04:45:05.673Z,8.47
2023-02-21T04:48:07.078Z,9.40
2023-02-21T04:51:15.481Z,8.77
2023-02-21T04:54:17.094Z,6.80
2023-02-21T04:57:18.555Z,8.83
2023-02-21T05:00:20.125Z,10.13
2023-02-21T05:03:21.921Z,8.87
2023-02-21T05:06:25.409Z,12.37
2023-02-21T05:09:26.799Z,9.67
2023-02-21T05:12:28.198Z,10.57
2023-02-21T05:15:29.627Z,11.47
2023-02-21T05:18:31.022Z,10.70
2023-02-21T05:21:35.941Z,12.53
2023-02-21T05:24:44.848Z,9.43
2023-02-21T05:27:46.685Z,12.33
2023-02-21T05:30:48.128Z,10.00
2023-02-21T05:33:49.587Z,13.87
2023-02-21T05:36:51.499Z,13.17
2023-02-21T05:39:52.980Z,13.47
2023-02-21T05:42:54.397Z,13.47
2023-02-21T05:45:56.029Z,15.57
2023-02-21T05:48:58.523Z,13.23
2023-02-21T05:51:59.928Z,13.13
2023-02-21T05:55:01.412Z,12.93
2023-02-21T05:58:02.869Z,12.97
2023-02-21T06:01:05.154Z,15.27
2023-02-21T06:04:07.554Z,14.60
2023-02-21T06:07:08.947Z,14.03
2023-02-21T06:10:10.499Z,15.43
2023-02-21T06:13:12.018Z,14.97
2023-02-21T06:16:13.461Z,16.37
2023-02-21T06:19:16.440Z,20.07
2023-02-21T06:22:17.837Z,20.63
2023-02-21T06:25:19.366Z,17.87
2023-02-21T06:28:20.765Z,17.60
2023-02-21T06:31:22.517Z,19.43
2023-02-21T06:34:23.964Z,17.13
2023-02-21T06:37:25.359Z,17.23
2023-02-21T06:40:26.734Z,18.67
2023-02-21T06:43:28.098Z,17.67
2023-02-21T06:46:30.843Z,18.00
2023-02-21T06:49:32.259Z,17.23
2023-02-21T06:52:33.672Z,17.43
2023-02-21T06:55:35.085Z,19.10
2023-02-21T06:58:36.516Z,21.10
2023-02-21T07:01:37.939Z,18.30
2023-02-21T07:04:39.444Z,18.00
2023-02-21T07:07:42.766Z,18.53
2023-02-21T07:10:44.254Z,16.43
2023-02-21T07:13:53.012Z,18.33
2023-02-21T07:16:54.413Z,22.60
2023-02-21T07:19:55.785Z,15.73
2023-02-21T07:22:57.171Z,22.40
2023-02-21T07:25:58.650Z,19.00
2023-02-21T07:29:00.185Z,18.93
2023-02-21T07:32:01.596Z,18.83
2023-02-21T07:35:04.154Z,17.83
2023-02-21T07:38:05.579Z,18.10
2023-02-21T07:41:06.945Z,20.30
2023-02-21T07:44:08.599Z,18.27
2023-02-21T07:47:10.634Z,15.43
2023-02-21T07:50:12.563Z,17.23
2023-02-21T07:53:15.743Z,15.10
2023-02-21T07:56:17.222Z,13.67
2023-02-21T07:59:18.611Z,11.23
2023-02-21T08:02:20.411Z,15.67
2023-02-21T08:05:22.104Z,11.30
2023-02-21T08:08:23.517Z,12.27
2023-02-21T08:11:24.926Z,13.03
2023-02-21T08:14:26.436Z,11.03
2023-02-21T08:17:27.888Z,12.57
2023-02-21T08:20:29.338Z,18.00
2023-02-21T08:23:30.728Z,9.57
2023-02-21T08:26:32.149Z,11.53
2023-02-21T08:29:33.551Z,11.80
2023-02-21T08:32:35.517Z,13.50
2023-02-21T08:35:36.923Z,11.67
2023-02-21T08:38:39.550Z,13.47
2023-02-21T08:41:45.679Z,12.30
2023-02-21T08:44:47.865Z,13.03
2023-02-21T08:47:50.358Z,11.40
2023-02-21T08:50:53.634Z,10.00
2023-02-21T08:53:55.498Z,9.67
2023-02-21T08:56:58.617Z,12.33
2023-02-21T09:00:00.441Z,10.80
2023-02-21T09:03:02.169Z,10.87
2023-02-21T09:06:03.759Z,10.10
2023-02-21T09:09:05.145Z,12.83
2023-02-21T09:12:08.505Z,9.50
2023-02-21T09:15:10.727Z,11.03
2023-02-21T09:18:13.403Z,11.47
2023-02-21T09:21:16.245Z,14.07
2023-02-21T09:24:17.727Z,11.87
2023-02-21T09:27:20.048Z,10.77
2023-02-21T09:30:25.953Z,11.73
2023-02-21T09:33:27.491Z,13.70
2023-02-21T09:36:28.881Z,10.80
2023-02-21T09:39:30.268Z,13.33
2023-02-21T09:42:32.363Z,13.67
2023-02-21T09:45:36.997Z,12.30
2023-02-21T09:48:40.875Z,14.20
2023-02-21T09:51:43.775Z,14.47
2023-02-21T09:54:52.117Z,14.93
2023-02-21T09:57:54.377Z,14.33
2023-02-21T10:01:01.096Z,14.83
2023-02-21T10:04:21.688Z,12.67
2023-02-21T10:07:28.771Z,17.43
2023-02-21T10:10:46.496Z,13.23
2023-02-21T10:14:07.541Z,14.40
2023-02-21T10:17:36.768Z,14.23
2023-02-21T10:20:50.309Z,13.10
2023-02-21T10:23:57.687Z,16.17
2023-02-21T10:27:07.546Z,14.53
2023-02-21T10:30:18.007Z,16.33
2023-02-21T10:33:19.629Z,13.00
2023-02-21T10:36:23.063Z,12.40
2023-02-21T10:39:50.289Z,15.77
2023-02-21T10:43:01.186Z,12.37
2023-02-21T10:46:30.167Z,14.97
2023-02-21T10:49:39.574Z,12.23
2023-02-21T10:52:51.462Z,12.97
2023-02-21T10:56:15.223Z,13.20
2023-02-21T10:59:26.495Z,14.37
2023-02-21T11:02:44.797Z,14.60
2023-02-21T11:05:57.519Z,13.90
2023-02-21T11:08:59.638Z,12.87
2023-02-21T11:12:16.177Z,13.83
2023-02-21T11:15:18.970Z,12.50
2023-02-21T11:18:25.642Z,12.63
2023-02-21T11:21:27.113Z,13.20
2023-02-21T11:24:28.628Z,13.57
2023-02-21T11:27:32.526Z,14.50
2023-02-21T11:30:40.409Z,12.10
2023-02-21T11:33:57.641Z,12.37
2023-02-21T11:37:03.794Z,10.50
2023-02-21T11:40:08.477Z,14.37
2023-02-21T11:43:26.541Z,9.27
2023-02-21T11:46:37.915Z,11.60
2023-02-21T11:50:01.415Z,11.17
2023-02-21T11:53:26.064Z,10.20
2023-02-21T11:56:43.102Z,10.43
2023-02-21T12:00:20.011Z,14.60
2023-02-21T12:03:44.860Z,10.13
2023-02-21T12:06:57.076Z,8.03
2023-02-21T12:10:32.329Z,9.17
2023-02-21T12:13:58.847Z,10.33
2023-02-21T12:17:22.042Z,8.93
2023-02-21T12:20:38.479Z,6.77
2023-02-21T12:23:56.497Z,7.70
2023-02-21T12:27:31.162Z,7.13
2023-02-21T12:30:50.999Z,9.83
2023-02-21T12:34:06.844Z,7.30
2023-02-21T12:37:18.910Z,7.40
2023-02-21T12:40:28.708Z,7.80
2023-02-21T12:43:41.756Z,10.50
2023-02-21T12:47:17.442Z,9.03
2023-02-21T12:50:23.340Z,8.10
2023-02-21T12:54:03.670Z,7.90
2023-02-21T12:57:25.938Z,6.70
2023-02-21T13:00:44.186Z,6.07
2023-02-21T13:04:09.235Z,6.80
2023-02-21T13:07:21.543Z,5.40
2023-02-21T13:10:29.394Z,5.53
2023-02-21T13:13:32.832Z,5.90
2023-02-21T13:16:34.677Z,5.03
2023-02-21T13:19:50.104Z,7.27
2023-02-21T13:23:28.821Z,8.97
2023-02-21T13:27:07.981Z,5.40
2023-02-21T13:30:15.462Z,4.37
2023-02-21T13:33:38.494Z,4.53
2023-02-21T13:36:39.857Z,5.57
2023-02-21T13:39:45.419Z,5.30
2023-02-21T13:42:47.068Z,3.80
2023-02-21T13:45:48.810Z,5.03
2023-02-21T13:49:27.906Z,3.87
2023-02-21T13:52:32.016Z,3.87
2023-02-21T13:55:35.898Z,6.03
2023-02-21T13:58:45.937Z,5.43
2023-02-21T14:01:50.273Z,6.23
2023-02-21T14:05:01.577Z,5.03
2023-02-21T14:08:07.135Z,5.17
2023-02-21T14:11:12.431Z,5.73
2023-02-21T14:14:24.211Z,6.37
2023-02-21T14:17:29.373Z,4.07
2023-02-21T14:20:31.768Z,3.63
2023-02-21T14:23:45.548Z,3.37
2023-02-21T14:26:53.053Z,3.73
2023-02-21T14:30:00.687Z,8.23
2023-02-21T14:33:21.819Z,3.70
2023-02-21T14:36:24.065Z,4.03
2023-02-21T14:39:32.856Z,3.03
2023-02-21T14:42:43.357Z,3.73
2023-02-21T14:46:25.441Z,3.20
2023-02-21T14:49:51.764Z,3.67
2023-02-21T14:53:21.372Z,3.73
2023-02-21T14:56:56.858Z,3.20
2023-02-21T15:00:30.786Z,3.70
2023-02-21T15:03:41.863Z,3.80
2023-02-21T15:06:53.045Z,2.83
2023-02-21T15:10:27.067Z,3.53
2023-02-21T15:13:31.904Z,2.30
2023-02-21T15:16:33.339Z,2.37
2023-02-21T15:19:35.849Z,4.67
2023-02-21T15:22:37.259Z,2.63
2023-02-21T15:25:38.675Z,3.40
2023-02-21T15:28:40.071Z,2.87
2023-02-21T15:31:57.035Z,4.17
2023-02-21T15:34:58.834Z,3.30
2023-02-21T15:38:03.883Z,3.50
2023-02-21T15:41:15.934Z,2.93
2023-02-21T15:44:26.380Z,2.20
2023-02-21T15:47:32.866Z,4.00
2023-02-21T15:50:46.589Z,2.83
2023-02-21T15:54:11.247Z,3.70
2023-02-21T15:57:23.965Z,2.63
2023-02-21T16:00:33.132Z,2.30
2023-02-21T16:03:39.090Z,3.27
2023-02-21T16:06:48.409Z,2.30
2023-02-21T16:09:57.201Z,13.63
2023-02-21T16:13:00.873Z,6.03
2023-02-21T16:16:02.484Z,12.67
2023-02-21T16:19:04.071Z,13.47
2023-02-21T16:22:29.987Z,7.03
2023-02-21T16:25:33.356Z,3.47
2023-02-21T16:28:36.236Z,4.03
2023-02-21T16:31:39.843Z,4.57
2023-02-21T16:34:41.416Z,5.10
2023-02-21T16:37:42.898Z,7.07
2023-02-21T16:40:44.702Z,4.10
2023-02-21T16:43:46.770Z,6.40
2023-02-21T16:46:50.876Z,4.77
2023-02-21T16:49:52.298Z,5.83
2023-02-21T16:52:53.780Z,6.47
2023-02-21T16:55:56.320Z,5.53
2023-02-21T16:58:57.804Z,2.93
2023-02-21T17:01:59.261Z,6.03
2023-02-21T17:05:00.664Z,7.90
2023-02-21T17:08:02.956Z,9.53
2023-02-21T17:11:04.590Z,7.97
2023-02-21T17:14:05.978Z,6.73
2023-02-21T17:17:07.423Z,9.07
2023-02-21T17:20:14.404Z,10.63
2023-02-21T17:23:15.956Z,9.30
2023-02-21T17:26:17.898Z,9.50
2023-02-21T17:29:20.308Z,11.13
2023-02-21T17:32:21.810Z,8.57
2023-02-21T17:35:24.535Z,10.13
2023-02-21T17:38:25.966Z,9.07
2023-02-21T17:41:28.865Z,7.93
2023-02-21T17:44:30.340Z,9.53
2023-02-21T17:47:31.738Z,9.17
2023-02-21T17:50:33.563Z,9.07
2023-02-21T17:53:35.127Z,9.03
2023-02-21T17:56:36.546Z,7.93
2023-02-21T17:59:38.930Z,10.70
2023-02-21T18:02:40.485Z,6.13
2023-02-21T18:05:41.906Z,7.10
2023-02-21T18:08:46.685Z,7.37
2023-02-21T18:11:53.015Z,10.50
2023-02-21T18:14:54.457Z,10.67
2023-02-21T18:17:56.740Z,10.43
2023-02-21T18:20:59.598Z,11.40
2023-02-21T18:24:00.980Z,16.57
2023-02-21T18:27:02.457Z,14.43
2023-02-21T18:30:04.885Z,10.37
2023-02-21T18:33:06.628Z,14.00
2023-02-21T18:36:09.035Z,19.43
2023-02-21T18:39:10.412Z,17.07
2023-02-21T18:42:11.790Z,15.70
2023-02-21T18:45:13.295Z,14.13
2023-02-21T18:48:15.724Z,13.17
2023-02-21T18:51:19.883Z,13.30
2023-02-21T18:54:21.384Z,22.03
2023-02-21T18:57:22.928Z,23.90
2023-02-21T19:00:25.894Z,24.00
2023-02-21T19:03:27.368Z,23.23
2023-02-21T19:06:28.858Z,20.27
2023-02-21T19:09:30.244Z,21.17
2023-02-21T19:12:31.684Z,21.03
2023-02-21T19:15:33.424Z,21.67
2023-02-21T19:18:34.803Z,20.23
2023-02-21T19:21:36.254Z,17.27
2023-02-21T19:24:37.707Z,17.23
2023-02-21T19:27:39.091Z,16.83
2023-02-21T19:30:40.582Z,14.40
2023-02-21T19:33:43.245Z,10.07
2023-02-21T19:36:45.014Z,11.50
2023-02-21T19:39:46.558Z,15.53
2023-02-21T19:42:48.620Z,9.77
2023-02-21T19:45:52.063Z,10.80
2023-02-21T19:48:53.816Z,11.00
2023-02-21T19:51:58.421Z,9.57
2023-02-21T19:54:59.788Z,11.00
2023-02-21T19:58:06.384Z,11.23
2023-02-21T20:01:08.647Z,9.27
2023-02-21T20:04:10.830Z,10.77
2023-02-21T20:07:12.294Z,10.97
2023-02-21T20:10:16.600Z,8.27
2023-02-21T20:13:20.124Z,11.03
2023-02-21T20:16:22.259Z,11.73
2023-02-21T20:19:24.831Z,12.67
2023-02-21T20:22:31.187Z,14.03
2023-02-21T20:25:32.610Z,14.50
2023-02-21T20:28:34.070Z,13.00
2023-02-21T20:31:37.497Z,15.30
2023-02-21T20:34:39.693Z,16.70
2023-02-21T20:37:41.197Z,17.23
2023-02-21T20:40:42.657Z,15.50
2023-02-21T20:43:44.037Z,15.83
2023-02-21T20:46:45.462Z,17.93
2023-02-21T20:49:47.599Z,18.50
2023-02-21T20:52:49.023Z,17.33
2023-02-21T20:55:50.760Z,21.10
2023-02-21T20:58:52.151Z,20.33
2023-02-21T21:01:53.834Z,18.23
2023-02-21T21:04:55.222Z,21.53
2023-02-21T21:07:58.051Z,19.93
2023-02-21T21:10:59.529Z,20.33
2023-02-21T21:14:03.805Z,19.63
2023-02-21T21:17:06.009Z,16.60
2023-02-21T21:20:09.771Z,15.13
2023-02-21T21:23:11.138Z,19.80
2023-02-21T21:26:13.761Z,22.03
2023-02-21T21:29:15.482Z,20.63
2023-02-21T21:32:23.536Z,24.40
2023-02-21T21:35:29.824Z,23.03
2023-02-21T21:38:31.626Z,23.97
2023-02-21T21:41:34.208Z,25.37
2023-02-21T21:44:37.748Z,17.93
2023-02-21T21:47:39.128Z,19.13
2023-02-21T21:50:42.096Z,24.93
2023-02-21T21:53:43.629Z,17.03
2023-02-21T21:56:45.101Z,18.53
2023-02-21T21:59:49.444Z,13.83
2023-02-21T22:02:56.926Z,15.10
2023-02-21T22:06:00.416Z,16.47
2023-02-21T22:09:02.274Z,12.97
2023-02-21T22:12:06.108Z,12.63
2023-02-21T22:15:10.463Z,13.07
2023-02-21T22:18:15.929Z,15.57
2023-02-21T22:21:17.722Z,19.60
2023-02-21T22:24:20.708Z,14.07
2023-02-21T22:27:22.240Z,14.80
2023-02-21T22:30:25.067Z,18.13
2023-02-21T22:33:26.504Z,20.30
2023-02-21T22:36:31.117Z,18.47
2023-02-21T22:39:32.498Z,18.00
2023-02-21T22:42:33.951Z,18.77
2023-02-21T22:45:36.375Z,19.97
2023-02-21T22:48:40.020Z,20.63
2023-02-21T22:51:41.402Z,18.97
2023-02-21T22:54:42.829Z,19.27
2023-02-21T22:57:44.204Z,18.57
2023-02-21T23:00:47.076Z,17.40
2023-02-21T23:03:48.466Z,19.80
2023-02-21T23:06:49.845Z,16.10
2023-02-21T23:09:51.986Z,15.10
2023-02-21T23:12:58.121Z,15.03
2023-02-21T23:16:01.154Z,17.60
2023-02-21T23:19:02.696Z,15.23
2023-02-21T23:22:05.332Z,18.43
2023-02-21T23:25:19.602Z,20.47
2023-02-21T23:28:20.981Z,20.23
2023-02-21T23:31:22.836Z,17.27
2023-02-21T23:34:39.610Z,18.97
2023-02-21T23:37:42.954Z,22.87
2023-02-21T23:41:02.300Z,21.93
2023-02-21T23:44:03.843Z,22.10
2023-02-21T23:47:06.035Z,32.03
2023-02-21T23:50:17.084Z,24.57
2023-02-21T23:53:21.061Z,23.57
2023-02-21T23:56:22.783Z,21.53
2023-02-21T23:59:26.792Z,20.43
